sensor_id;sensor_type;location;lat;lon;timestamp;P1;durP1;ratioP1;P2;durP2;ratioP2
58760;SDS011;44529;47.464;19.014;2023-05-07T00:00:14;9.48;;;8.02;;
58760;SDS011;44529;47.464;19.014;2023-05-07T00:03:18;11.30;;;7.95;;
58760;SDS011;44529;47.464;19.014;2023-05-07T00:06:21;9.25;;;8.32;;
58760;SDS011;44529;47.464;19.014;2023-05-07T00:09:23;9.43;;;7.97;;
58760;SDS011;44529;47.464;19.014;2023-05-07T00:12:25;10.20;;;8.82;;
58760;SDS011;44529;47.464;19.014;2023-05-07T00:15:28;10.40;;;8.18;;
58760;SDS011;44529;47.464;19.014;2023-05-07T00:18:30;9.63;;;8.63;;
58760;SDS011;44529;47.464;19.014;2023-05-07T00:21:33;8.80;;;7.90;;
58760;SDS011;44529;47.464;19.014;2023-05-07T00:24:35;10.63;;;8.27;;
58760;SDS011;44529;47.464;19.014;2023-05-07T00:27:37;8.60;;;7.80;;
58760;SDS011;44529;47.464;19.014;2023-05-07T00:30:39;12.95;;;8.65;;
58760;SDS011;44529;47.464;19.014;2023-05-07T00:33:42;9.30;;;8.40;;
58760;SDS011;44529;47.464;19.014;2023-05-07T00:36:44;9.68;;;8.05;;
58760;SDS011;44529;47.464;19.014;2023-05-07T00:39:47;10.30;;;7.85;;
58760;SDS011;44529;47.464;19.014;2023-05-07T00:42:49;9.50;;;8.38;;
58760;SDS011;44529;47.464;19.014;2023-05-07T00:45:51;9.00;;;8.10;;
58760;SDS011;44529;47.464;19.014;2023-05-07T00:48:54;8.82;;;7.93;;
58760;SDS011;44529;47.464;19.014;2023-05-07T00:51:56;8.27;;;7.47;;
58760;SDS011;44529;47.464;19.014;2023-05-07T00:55:00;8.80;;;7.43;;
58760;SDS011;44529;47.464;19.014;2023-05-07T00:58:07;9.80;;;7.78;;
58760;SDS011;44529;47.464;19.014;2023-05-07T01:01:10;10.32;;;7.53;;
58760;SDS011;44529;47.464;19.014;2023-05-07T01:04:13;9.80;;;7.87;;
58760;SDS011;44529;47.464;19.014;2023-05-07T01:07:15;11.35;;;7.85;;
58760;SDS011;44529;47.464;19.014;2023-05-07T01:10:18;9.70;;;8.35;;
58760;SDS011;44529;47.464;19.014;2023-05-07T01:13:21;8.95;;;8.05;;
58760;SDS011;44529;47.464;19.014;2023-05-07T01:16:23;10.88;;;8.32;;
58760;SDS011;44529;47.464;19.014;2023-05-07T01:19:26;9.82;;;8.68;;
58760;SDS011;44529;47.464;19.014;2023-05-07T01:22:34;8.35;;;7.55;;
58760;SDS011;44529;47.464;19.014;2023-05-07T01:25:39;9.13;;;8.23;;
58760;SDS011;44529;47.464;19.014;2023-05-07T01:28:42;9.32;;;7.62;;
58760;SDS011;44529;47.464;19.014;2023-05-07T01:31:45;8.98;;;8.07;;
58760;SDS011;44529;47.464;19.014;2023-05-07T01:34:49;8.23;;;7.43;;
58760;SDS011;44529;47.464;19.014;2023-05-07T01:37:52;8.70;;;7.50;;
58760;SDS011;44529;47.464;19.014;2023-05-07T01:40:56;8.52;;;7.72;;
58760;SDS011;44529;47.464;19.014;2023-05-07T01:43:59;9.63;;;8.43;;
58760;SDS011;44529;47.464;19.014;2023-05-07T01:47:03;8.25;;;7.43;;
58760;SDS011;44529;47.464;19.014;2023-05-07T01:50:06;9.30;;;8.40;;
58760;SDS011;44529;47.464;19.014;2023-05-07T01:53:11;10.10;;;7.62;;
58760;SDS011;44529;47.464;19.014;2023-05-07T01:56:13;8.30;;;7.50;;
58760;SDS011;44529;47.464;19.014;2023-05-07T01:59:16;8.63;;;7.68;;
58760;SDS011;44529;47.464;19.014;2023-05-07T02:02:19;8.95;;;7.50;;
58760;SDS011;44529;47.464;19.014;2023-05-07T02:05:22;11.98;;;7.45;;
58760;SDS011;44529;47.464;19.014;2023-05-07T02:08:25;7.87;;;7.18;;
58760;SDS011;44529;47.464;19.014;2023-05-07T02:11:28;8.98;;;8.13;;
58760;SDS011;44529;47.464;19.014;2023-05-07T02:14:31;8.30;;;7.50;;
58760;SDS011;44529;47.464;19.014;2023-05-07T02:17:33;9.43;;;7.43;;
58760;SDS011;44529;47.464;19.014;2023-05-07T02:20:35;9.13;;;8.25;;
58760;SDS011;44529;47.464;19.014;2023-05-07T02:23:38;8.13;;;7.32;;
58760;SDS011;44529;47.464;19.014;2023-05-07T02:26:41;8.80;;;7.45;;
58760;SDS011;44529;47.464;19.014;2023-05-07T02:29:43;8.00;;;7.20;;
58760;SDS011;44529;47.464;19.014;2023-05-07T02:32:45;9.93;;;7.85;;
58760;SDS011;44529;47.464;19.014;2023-05-07T02:35:48;8.60;;;7.87;;
58760;SDS011;44529;47.464;19.014;2023-05-07T02:38:50;8.10;;;7.30;;
58760;SDS011;44529;47.464;19.014;2023-05-07T02:41:52;8.82;;;7.93;;
58760;SDS011;44529;47.464;19.014;2023-05-07T02:44:55;7.78;;;6.95;;
58760;SDS011;44529;47.464;19.014;2023-05-07T02:47:57;7.87;;;7.18;;
58760;SDS011;44529;47.464;19.014;2023-05-07T02:51:00;7.45;;;6.82;;
58760;SDS011;44529;47.464;19.014;2023-05-07T02:54:03;8.32;;;7.10;;
58760;SDS011;44529;47.464;19.014;2023-05-07T02:57:05;7.30;;;6.62;;
58760;SDS011;44529;47.464;19.014;2023-05-07T03:00:15;7.65;;;6.82;;
58760;SDS011;44529;47.464;19.014;2023-05-07T03:03:20;7.20;;;6.55;;
58760;SDS011;44529;47.464;19.014;2023-05-07T03:06:23;8.13;;;7.32;;
58760;SDS011;44529;47.464;19.014;2023-05-07T03:09:25;6.93;;;6.22;;
58760;SDS011;44529;47.464;19.014;2023-05-07T03:12:27;7.80;;;7.07;;
58760;SDS011;44529;47.464;19.014;2023-05-07T03:15:30;7.70;;;7.00;;
58760;SDS011;44529;47.464;19.014;2023-05-07T03:18:32;7.20;;;6.50;;
58760;SDS011;44529;47.464;19.014;2023-05-07T03:21:35;7.05;;;6.37;;
58760;SDS011;44529;47.464;19.014;2023-05-07T03:24:37;7.55;;;6.85;;
58760;SDS011;44529;47.464;19.014;2023-05-07T03:27:39;7.53;;;6.70;;
58760;SDS011;44529;47.464;19.014;2023-05-07T03:30:43;7.22;;;6.62;;
58760;SDS011;44529;47.464;19.014;2023-05-07T03:33:53;7.15;;;6.50;;
58760;SDS011;44529;47.464;19.014;2023-05-07T03:36:58;8.68;;;7.10;;
58760;SDS011;44529;47.464;19.014;2023-05-07T03:40:00;9.65;;;6.85;;
58760;SDS011;44529;47.464;19.014;2023-05-07T03:43:04;7.35;;;6.75;;
58760;SDS011;44529;47.464;19.014;2023-05-07T03:46:08;10.20;;;6.47;;
58760;SDS011;44529;47.464;19.014;2023-05-07T03:49:11;7.10;;;6.45;;
58760;SDS011;44529;47.464;19.014;2023-05-07T03:52:13;9.93;;;6.28;;
58760;SDS011;44529;47.464;19.014;2023-05-07T03:55:16;8.38;;;6.20;;
58760;SDS011;44529;47.464;19.014;2023-05-07T03:58:22;6.97;;;6.28;;
58760;SDS011;44529;47.464;19.014;2023-05-07T04:01:24;6.45;;;5.82;;
58760;SDS011;44529;47.464;19.014;2023-05-07T04:04:27;7.43;;;6.55;;
58760;SDS011;44529;47.464;19.014;2023-05-07T04:07:31;7.53;;;6.43;;
58760;SDS011;44529;47.464;19.014;2023-05-07T04:10:34;9.80;;;6.68;;
58760;SDS011;44529;47.464;19.014;2023-05-07T04:13:37;10.02;;;6.90;;
58760;SDS011;44529;47.464;19.014;2023-05-07T04:16:40;7.40;;;6.75;;
58760;SDS011;44529;47.464;19.014;2023-05-07T04:19:42;8.15;;;7.20;;
58760;SDS011;44529;47.464;19.014;2023-05-07T04:22:48;7.68;;;6.93;;
58760;SDS011;44529;47.464;19.014;2023-05-07T04:25:51;7.82;;;7.12;;
58760;SDS011;44529;47.464;19.014;2023-05-07T04:28:53;6.53;;;5.85;;
58760;SDS011;44529;47.464;19.014;2023-05-07T04:31:56;7.90;;;6.50;;
58760;SDS011;44529;47.464;19.014;2023-05-07T04:34:59;7.57;;;6.85;;
58760;SDS011;44529;47.464;19.014;2023-05-07T04:38:01;9.27;;;6.97;;
58760;SDS011;44529;47.464;19.014;2023-05-07T04:41:04;8.10;;;7.00;;
58760;SDS011;44529;47.464;19.014;2023-05-07T04:44:08;8.05;;;6.10;;
58760;SDS011;44529;47.464;19.014;2023-05-07T04:47:11;9.52;;;6.30;;
58760;SDS011;44529;47.464;19.014;2023-05-07T04:50:14;7.80;;;6.93;;
58760;SDS011;44529;47.464;19.014;2023-05-07T04:53:17;7.70;;;6.47;;
58760;SDS011;44529;47.464;19.014;2023-05-07T04:56:19;8.00;;;6.60;;
58760;SDS011;44529;47.464;19.014;2023-05-07T04:59:23;8.05;;;7.25;;
58760;SDS011;44529;47.464;19.014;2023-05-07T05:02:25;11.07;;;6.97;;
58760;SDS011;44529;47.464;19.014;2023-05-07T05:05:28;7.22;;;6.53;;
58760;SDS011;44529;47.464;19.014;2023-05-07T05:08:30;6.90;;;6.30;;
58760;SDS011;44529;47.464;19.014;2023-05-07T05:11:33;7.28;;;6.57;;
58760;SDS011;44529;47.464;19.014;2023-05-07T05:14:35;6.93;;;6.28;;
58760;SDS011;44529;47.464;19.014;2023-05-07T05:17:38;7.00;;;6.30;;
58760;SDS011;44529;47.464;19.014;2023-05-07T05:20:41;6.60;;;5.95;;
58760;SDS011;44529;47.464;19.014;2023-05-07T05:23:45;7.00;;;6.22;;
58760;SDS011;44529;47.464;19.014;2023-05-07T05:26:49;6.12;;;5.53;;
58760;SDS011;44529;47.464;19.014;2023-05-07T05:29:52;7.62;;;6.03;;
58760;SDS011;44529;47.464;19.014;2023-05-07T05:32:54;6.10;;;5.60;;
58760;SDS011;44529;47.464;19.014;2023-05-07T05:35:57;5.32;;;4.80;;
58760;SDS011;44529;47.464;19.014;2023-05-07T05:38:59;5.97;;;5.37;;
58760;SDS011;44529;47.464;19.014;2023-05-07T05:42:02;5.80;;;5.30;;
58760;SDS011;44529;47.464;19.014;2023-05-07T05:45:07;5.70;;;5.20;;
58760;SDS011;44529;47.464;19.014;2023-05-07T05:48:10;5.07;;;4.57;;
58760;SDS011;44529;47.464;19.014;2023-05-07T05:51:13;5.65;;;5.12;;
58760;SDS011;44529;47.464;19.014;2023-05-07T05:54:16;5.30;;;4.80;;
58760;SDS011;44529;47.464;19.014;2023-05-07T05:57:18;6.25;;;5.65;;
58760;SDS011;44529;47.464;19.014;2023-05-07T06:00:21;8.80;;;5.53;;
58760;SDS011;44529;47.464;19.014;2023-05-07T06:03:30;6.07;;;5.47;;
58760;SDS011;44529;47.464;19.014;2023-05-07T06:06:35;5.97;;;5.32;;
58760;SDS011;44529;47.464;19.014;2023-05-07T06:09:38;6.90;;;5.47;;
58760;SDS011;44529;47.464;19.014;2023-05-07T06:12:40;6.07;;;5.47;;
58760;SDS011;44529;47.464;19.014;2023-05-07T06:15:43;5.65;;;5.03;;
58760;SDS011;44529;47.464;19.014;2023-05-07T06:18:46;6.55;;;5.95;;
58760;SDS011;44529;47.464;19.014;2023-05-07T06:21:49;6.45;;;5.80;;
58760;SDS011;44529;47.464;19.014;2023-05-07T06:24:52;6.90;;;6.20;;
58760;SDS011;44529;47.464;19.014;2023-05-07T06:27:55;8.40;;;5.95;;
58760;SDS011;44529;47.464;19.014;2023-05-07T06:31:10;7.05;;;5.20;;
58760;SDS011;44529;47.464;19.014;2023-05-07T06:34:17;6.65;;;5.28;;
58760;SDS011;44529;47.464;19.014;2023-05-07T06:37:19;7.28;;;5.53;;
58760;SDS011;44529;47.464;19.014;2023-05-07T06:40:22;6.53;;;4.80;;
58760;SDS011;44529;47.464;19.014;2023-05-07T06:43:25;4.37;;;3.97;;
58760;SDS011;44529;47.464;19.014;2023-05-07T06:46:28;3.10;;;2.90;;
58760;SDS011;44529;47.464;19.014;2023-05-07T06:49:31;3.95;;;3.25;;
58760;SDS011;44529;47.464;19.014;2023-05-07T06:52:34;3.70;;;3.03;;
58760;SDS011;44529;47.464;19.014;2023-05-07T06:55:38;2.97;;;2.75;;
58760;SDS011;44529;47.464;19.014;2023-05-07T06:58:41;2.90;;;2.70;;
58760;SDS011;44529;47.464;19.014;2023-05-07T07:01:44;3.87;;;3.22;;
58760;SDS011;44529;47.464;19.014;2023-05-07T07:04:47;3.87;;;3.45;;
58760;SDS011;44529;47.464;19.014;2023-05-07T07:07:49;3.65;;;3.35;;
58760;SDS011;44529;47.464;19.014;2023-05-07T07:10:55;3.47;;;3.03;;
58760;SDS011;44529;47.464;19.014;2023-05-07T07:13:57;4.10;;;3.08;;
58760;SDS011;44529;47.464;19.014;2023-05-07T07:17:03;3.20;;;3.00;;
58760;SDS011;44529;47.464;19.014;2023-05-07T07:20:07;3.05;;;2.80;;
58760;SDS011;44529;47.464;19.014;2023-05-07T07:23:14;4.00;;;3.60;;
58760;SDS011;44529;47.464;19.014;2023-05-07T07:26:17;3.75;;;3.30;;
58760;SDS011;44529;47.464;19.014;2023-05-07T07:29:19;3.15;;;2.35;;
58760;SDS011;44529;47.464;19.014;2023-05-07T07:32:22;2.85;;;2.50;;
58760;SDS011;44529;47.464;19.014;2023-05-07T07:35:25;3.10;;;2.28;;
58760;SDS011;44529;47.464;19.014;2023-05-07T07:38:27;2.42;;;2.20;;
58760;SDS011;44529;47.464;19.014;2023-05-07T07:41:30;2.22;;;2.03;;
58760;SDS011;44529;47.464;19.014;2023-05-07T07:44:32;2.45;;;2.35;;
58760;SDS011;44529;47.464;19.014;2023-05-07T07:47:36;2.70;;;2.50;;
58760;SDS011;44529;47.464;19.014;2023-05-07T07:50:38;3.65;;;2.75;;
58760;SDS011;44529;47.464;19.014;2023-05-07T07:53:47;2.80;;;2.42;;
58760;SDS011;44529;47.464;19.014;2023-05-07T07:56:49;3.10;;;2.80;;
58760;SDS011;44529;47.464;19.014;2023-05-07T07:59:53;5.70;;;2.90;;
58760;SDS011;44529;47.464;19.014;2023-05-07T08:02:55;3.28;;;3.05;;
58760;SDS011;44529;47.464;19.014;2023-05-07T08:05:59;7.30;;;3.70;;
58760;SDS011;44529;47.464;19.014;2023-05-07T08:09:02;4.30;;;3.90;;
58760;SDS011;44529;47.464;19.014;2023-05-07T08:12:05;5.97;;;4.40;;
58760;SDS011;44529;47.464;19.014;2023-05-07T08:15:08;5.30;;;4.82;;
58760;SDS011;44529;47.464;19.014;2023-05-07T08:18:11;6.22;;;5.37;;
58760;SDS011;44529;47.464;19.014;2023-05-07T08:21:14;5.47;;;4.97;;
58760;SDS011;44529;47.464;19.014;2023-05-07T08:24:17;6.20;;;5.50;;
58760;SDS011;44529;47.464;19.014;2023-05-07T08:27:20;5.57;;;5.07;;
58760;SDS011;44529;47.464;19.014;2023-05-07T08:30:23;6.47;;;5.78;;
58760;SDS011;44529;47.464;19.014;2023-05-07T08:33:25;7.90;;;5.95;;
58760;SDS011;44529;47.464;19.014;2023-05-07T08:36:28;6.68;;;5.90;;
58760;SDS011;44529;47.464;19.014;2023-05-07T08:39:30;6.70;;;6.10;;
58760;SDS011;44529;47.464;19.014;2023-05-07T08:42:35;6.95;;;6.25;;
58760;SDS011;44529;47.464;19.014;2023-05-07T08:45:39;6.78;;;6.15;;
58760;SDS011;44529;47.464;19.014;2023-05-07T08:48:43;6.70;;;6.10;;
58760;SDS011;44529;47.464;19.014;2023-05-07T08:51:46;6.20;;;5.60;;
58760;SDS011;44529;47.464;19.014;2023-05-07T08:54:49;7.07;;;6.37;;
58760;SDS011;44529;47.464;19.014;2023-05-07T08:57:52;7.07;;;6.43;;
58760;SDS011;44529;47.464;19.014;2023-05-07T09:00:55;7.87;;;7.05;;
58760;SDS011;44529;47.464;19.014;2023-05-07T09:03:58;8.77;;;7.87;;
58760;SDS011;44529;47.464;19.014;2023-05-07T09:07:01;8.90;;;7.90;;
58760;SDS011;44529;47.464;19.014;2023-05-07T09:10:08;6.72;;;6.12;;
58760;SDS011;44529;47.464;19.014;2023-05-07T09:13:12;6.97;;;6.25;;
58760;SDS011;44529;47.464;19.014;2023-05-07T09:16:17;7.15;;;6.05;;
58760;SDS011;44529;47.464;19.014;2023-05-07T09:19:23;6.80;;;6.10;;
58760;SDS011;44529;47.464;19.014;2023-05-07T09:22:26;6.53;;;6.03;;
58760;SDS011;44529;47.464;19.014;2023-05-07T09:25:31;7.75;;;6.10;;
58760;SDS011;44529;47.464;19.014;2023-05-07T09:28:36;5.40;;;4.90;;
58760;SDS011;44529;47.464;19.014;2023-05-07T09:31:41;6.05;;;5.53;;
58760;SDS011;44529;47.464;19.014;2023-05-07T09:34:44;6.95;;;4.55;;
58760;SDS011;44529;47.464;19.014;2023-05-07T09:37:47;4.87;;;4.37;;
58760;SDS011;44529;47.464;19.014;2023-05-07T09:41:01;4.40;;;4.00;;
58760;SDS011;44529;47.464;19.014;2023-05-07T09:44:08;5.50;;;3.65;;
58760;SDS011;44529;47.464;19.014;2023-05-07T09:47:11;4.57;;;3.50;;
58760;SDS011;44529;47.464;19.014;2023-05-07T09:50:22;4.12;;;3.75;;
58760;SDS011;44529;47.464;19.014;2023-05-07T09:53:30;4.43;;;4.05;;
58760;SDS011;44529;47.464;19.014;2023-05-07T09:56:33;4.70;;;4.30;;
58760;SDS011;44529;47.464;19.014;2023-05-07T09:59:40;4.70;;;3.95;;
58760;SDS011;44529;47.464;19.014;2023-05-07T10:02:46;4.37;;;3.97;;
58760;SDS011;44529;47.464;19.014;2023-05-07T10:05:52;6.57;;;3.70;;
58760;SDS011;44529;47.464;19.014;2023-05-07T10:08:55;3.17;;;2.85;;
58760;SDS011;44529;47.464;19.014;2023-05-07T10:11:59;4.03;;;3.67;;
58760;SDS011;44529;47.464;19.014;2023-05-07T10:15:01;3.70;;;3.30;;
58760;SDS011;44529;47.464;19.014;2023-05-07T10:18:04;5.55;;;3.60;;
58760;SDS011;44529;47.464;19.014;2023-05-07T10:21:19;6.12;;;3.70;;
58760;SDS011;44529;47.464;19.014;2023-05-07T10:24:27;4.25;;;3.70;;
58760;SDS011;44529;47.464;19.014;2023-05-07T10:27:34;4.30;;;3.90;;
58760;SDS011;44529;47.464;19.014;2023-05-07T10:30:59;3.95;;;3.60;;
58760;SDS011;44529;47.464;19.014;2023-05-07T10:34:15;4.70;;;3.70;;
58760;SDS011;44529;47.464;19.014;2023-05-07T10:37:22;4.15;;;3.62;;
58760;SDS011;44529;47.464;19.014;2023-05-07T10:40:25;5.10;;;4.32;;
58760;SDS011;44529;47.464;19.014;2023-05-07T10:43:38;5.30;;;4.43;;
58760;SDS011;44529;47.464;19.014;2023-05-07T10:46:43;5.87;;;5.32;;
58760;SDS011;44529;47.464;19.014;2023-05-07T10:59:30;5.20;;;4.80;;
58760;SDS011;44529;47.464;19.014;2023-05-07T11:06:09;5.03;;;4.18;;
58760;SDS011;44529;47.464;19.014;2023-05-07T11:09:14;4.18;;;3.75;;
58760;SDS011;44529;47.464;19.014;2023-05-07T11:15:39;4.68;;;3.90;;
58760;SDS011;44529;47.464;19.014;2023-05-07T11:18:46;3.70;;;3.40;;
58760;SDS011;44529;47.464;19.014;2023-05-07T11:21:50;4.95;;;3.83;;
58760;SDS011;44529;47.464;19.014;2023-05-07T11:24:54;3.97;;;3.60;;
58760;SDS011;44529;47.464;19.014;2023-05-07T11:28:03;4.32;;;3.47;;
58760;SDS011;44529;47.464;19.014;2023-05-07T11:31:07;3.30;;;3.10;;
58760;SDS011;44529;47.464;19.014;2023-05-07T11:34:11;3.37;;;3.17;;
58760;SDS011;44529;47.464;19.014;2023-05-07T11:37:16;3.72;;;3.37;;
58760;SDS011;44529;47.464;19.014;2023-05-07T11:40:20;4.03;;;3.40;;
58760;SDS011;44529;47.464;19.014;2023-05-07T11:43:22;3.42;;;3.17;;
58760;SDS011;44529;47.464;19.014;2023-05-07T11:46:26;3.47;;;3.17;;
58760;SDS011;44529;47.464;19.014;2023-05-07T11:49:28;3.55;;;3.05;;
58760;SDS011;44529;47.464;19.014;2023-05-07T11:52:32;3.40;;;2.92;;
58760;SDS011;44529;47.464;19.014;2023-05-07T11:55:34;3.35;;;2.80;;
58760;SDS011;44529;47.464;19.014;2023-05-07T11:58:37;3.30;;;3.00;;
58760;SDS011;44529;47.464;19.014;2023-05-07T12:01:39;3.15;;;2.85;;
58760;SDS011;44529;47.464;19.014;2023-05-07T12:04:42;3.33;;;3.03;;
58760;SDS011;44529;47.464;19.014;2023-05-07T12:07:44;3.95;;;3.10;;
58760;SDS011;44529;47.464;19.014;2023-05-07T12:10:47;3.33;;;2.85;;
58760;SDS011;44529;47.464;19.014;2023-05-07T12:13:51;3.20;;;2.90;;
58760;SDS011;44529;47.464;19.014;2023-05-07T12:16:54;3.03;;;2.83;;
58760;SDS011;44529;47.464;19.014;2023-05-07T12:19:56;3.03;;;2.72;;
58760;SDS011;44529;47.464;19.014;2023-05-07T12:22:59;3.05;;;2.83;;
58760;SDS011;44529;47.464;19.014;2023-05-07T12:26:01;3.45;;;2.95;;
58760;SDS011;44529;47.464;19.014;2023-05-07T12:29:08;2.70;;;2.50;;
58760;SDS011;44529;47.464;19.014;2023-05-07T12:32:14;2.80;;;2.40;;
58760;SDS011;44529;47.464;19.014;2023-05-07T12:35:25;2.42;;;2.22;;
58760;SDS011;44529;47.464;19.014;2023-05-07T12:38:49;5.32;;;2.47;;
58760;SDS011;44529;47.464;19.014;2023-05-07T12:41:54;2.97;;;2.75;;
58760;SDS011;44529;47.464;19.014;2023-05-07T12:44:57;3.12;;;2.70;;
58760;SDS011;44529;47.464;19.014;2023-05-07T12:48:01;3.70;;;2.55;;
58760;SDS011;44529;47.464;19.014;2023-05-07T12:51:05;3.33;;;2.60;;
58760;SDS011;44529;47.464;19.014;2023-05-07T12:54:08;3.55;;;2.50;;
58760;SDS011;44529;47.464;19.014;2023-05-07T12:57:10;3.10;;;2.75;;
58760;SDS011;44529;47.464;19.014;2023-05-07T13:00:13;3.45;;;2.42;;
58760;SDS011;44529;47.464;19.014;2023-05-07T13:06:29;4.53;;;3.00;;
58760;SDS011;44529;47.464;19.014;2023-05-07T13:09:33;3.87;;;2.78;;
58760;SDS011;44529;47.464;19.014;2023-05-07T13:12:35;3.05;;;2.78;;
58760;SDS011;44529;47.464;19.014;2023-05-07T13:15:38;2.50;;;2.37;;
58760;SDS011;44529;47.464;19.014;2023-05-07T13:18:40;3.40;;;2.85;;
58760;SDS011;44529;47.464;19.014;2023-05-07T13:21:45;3.00;;;2.80;;
58760;SDS011;44529;47.464;19.014;2023-05-07T13:24:48;3.12;;;2.85;;
58760;SDS011;44529;47.464;19.014;2023-05-07T13:27:50;3.03;;;2.83;;
58760;SDS011;44529;47.464;19.014;2023-05-07T13:31:08;3.83;;;3.10;;
58760;SDS011;44529;47.464;19.014;2023-05-07T13:34:10;3.78;;;2.95;;
58760;SDS011;44529;47.464;19.014;2023-05-07T13:37:12;2.58;;;2.37;;
58760;SDS011;44529;47.464;19.014;2023-05-07T13:40:15;2.90;;;2.70;;
58760;SDS011;44529;47.464;19.014;2023-05-07T13:43:17;2.62;;;2.33;;
58760;SDS011;44529;47.464;19.014;2023-05-07T13:46:21;4.18;;;2.05;;
58760;SDS011;44529;47.464;19.014;2023-05-07T13:49:24;2.25;;;2.08;;
58760;SDS011;44529;47.464;19.014;2023-05-07T13:52:26;2.67;;;2.30;;
58760;SDS011;44529;47.464;19.014;2023-05-07T13:55:29;2.92;;;2.70;;
58760;SDS011;44529;47.464;19.014;2023-05-07T13:58:31;5.15;;;3.42;;
58760;SDS011;44529;47.464;19.014;2023-05-07T14:01:34;4.10;;;3.50;;
58760;SDS011;44529;47.464;19.014;2023-05-07T14:04:37;6.20;;;3.30;;
58760;SDS011;44529;47.464;19.014;2023-05-07T14:07:39;3.75;;;3.42;;
58760;SDS011;44529;47.464;19.014;2023-05-07T14:10:42;3.28;;;2.85;;
58760;SDS011;44529;47.464;19.014;2023-05-07T14:13:45;3.85;;;2.58;;
58760;SDS011;44529;47.464;19.014;2023-05-07T14:16:47;2.92;;;2.72;;
58760;SDS011;44529;47.464;19.014;2023-05-07T14:19:52;5.32;;;2.80;;
58760;SDS011;44529;47.464;19.014;2023-05-07T14:22:56;2.62;;;2.42;;
58760;SDS011;44529;47.464;19.014;2023-05-07T14:25:59;2.60;;;2.45;;
58760;SDS011;44529;47.464;19.014;2023-05-07T14:29:02;2.87;;;2.53;;
58760;SDS011;44529;47.464;19.014;2023-05-07T14:32:04;2.45;;;2.25;;
58760;SDS011;44529;47.464;19.014;2023-05-07T14:35:07;2.62;;;2.42;;
58760;SDS011;44529;47.464;19.014;2023-05-07T14:38:10;4.45;;;2.53;;
58760;SDS011;44529;47.464;19.014;2023-05-07T14:41:12;2.65;;;2.45;;
58760;SDS011;44529;47.464;19.014;2023-05-07T14:44:15;2.80;;;2.60;;
58760;SDS011;44529;47.464;19.014;2023-05-07T14:47:17;3.90;;;2.75;;
58760;SDS011;44529;47.464;19.014;2023-05-07T14:50:21;3.62;;;3.12;;
58760;SDS011;44529;47.464;19.014;2023-05-07T14:53:23;4.53;;;3.25;;
58760;SDS011;44529;47.464;19.014;2023-05-07T14:56:25;5.60;;;3.05;;
58760;SDS011;44529;47.464;19.014;2023-05-07T14:59:28;3.35;;;3.05;;
58760;SDS011;44529;47.464;19.014;2023-05-07T15:02:30;3.87;;;3.58;;
58760;SDS011;44529;47.464;19.014;2023-05-07T15:05:33;3.60;;;3.30;;
58760;SDS011;44529;47.464;19.014;2023-05-07T15:08:35;4.03;;;3.40;;
58760;SDS011;44529;47.464;19.014;2023-05-07T15:11:37;3.83;;;3.30;;
58760;SDS011;44529;47.464;19.014;2023-05-07T15:14:40;3.58;;;3.28;;
58760;SDS011;44529;47.464;19.014;2023-05-07T15:17:43;4.03;;;3.65;;
58760;SDS011;44529;47.464;19.014;2023-05-07T15:20:45;5.80;;;3.80;;
58760;SDS011;44529;47.464;19.014;2023-05-07T15:23:48;4.35;;;3.95;;
58760;SDS011;44529;47.464;19.014;2023-05-07T15:26:51;4.72;;;4.28;;
58760;SDS011;44529;47.464;19.014;2023-05-07T15:29:54;4.70;;;4.30;;
58760;SDS011;44529;47.464;19.014;2023-05-07T15:32:56;4.43;;;4.03;;
58760;SDS011;44529;47.464;19.014;2023-05-07T15:35:59;6.70;;;4.28;;
58760;SDS011;44529;47.464;19.014;2023-05-07T15:39:01;4.55;;;3.83;;
58760;SDS011;44529;47.464;19.014;2023-05-07T15:42:06;3.90;;;3.60;;
58760;SDS011;44529;47.464;19.014;2023-05-07T15:45:08;7.62;;;3.28;;
58760;SDS011;44529;47.464;19.014;2023-05-07T15:48:12;3.70;;;3.33;;
58760;SDS011;44529;47.464;19.014;2023-05-07T15:51:14;3.28;;;2.97;;
58760;SDS011;44529;47.464;19.014;2023-05-07T15:54:17;3.05;;;2.85;;
58760;SDS011;44529;47.464;19.014;2023-05-07T15:57:22;3.67;;;3.00;;
58760;SDS011;44529;47.464;19.014;2023-05-07T16:00:25;3.08;;;2.80;;
58760;SDS011;44529;47.464;19.014;2023-05-07T16:03:31;2.92;;;2.72;;
58760;SDS011;44529;47.464;19.014;2023-05-07T16:06:34;2.75;;;2.55;;
58760;SDS011;44529;47.464;19.014;2023-05-07T16:09:37;2.40;;;2.20;;
58760;SDS011;44529;47.464;19.014;2023-05-07T16:12:39;3.00;;;2.50;;
58760;SDS011;44529;47.464;19.014;2023-05-07T16:15:42;6.03;;;2.15;;
58760;SDS011;44529;47.464;19.014;2023-05-07T16:18:44;2.58;;;2.37;;
58760;SDS011;44529;47.464;19.014;2023-05-07T16:21:46;3.70;;;2.20;;
58760;SDS011;44529;47.464;19.014;2023-05-07T16:24:48;4.65;;;2.20;;
58760;SDS011;44529;47.464;19.014;2023-05-07T16:27:51;2.25;;;2.15;;
58760;SDS011;44529;47.464;19.014;2023-05-07T16:30:54;2.35;;;2.15;;
58760;SDS011;44529;47.464;19.014;2023-05-07T16:33:57;4.65;;;1.90;;
58760;SDS011;44529;47.464;19.014;2023-05-07T16:36:59;2.22;;;2.03;;
58760;SDS011;44529;47.464;19.014;2023-05-07T16:40:01;2.42;;;2.22;;
58760;SDS011;44529;47.464;19.014;2023-05-07T16:43:08;2.83;;;2.12;;
58760;SDS011;44529;47.464;19.014;2023-05-07T16:46:10;3.25;;;1.87;;
58760;SDS011;44529;47.464;19.014;2023-05-07T16:49:12;1.95;;;1.85;;
58760;SDS011;44529;47.464;19.014;2023-05-07T16:52:15;2.42;;;2.22;;
58760;SDS011;44529;47.464;19.014;2023-05-07T16:55:17;2.17;;;1.98;;
58760;SDS011;44529;47.464;19.014;2023-05-07T16:58:20;2.80;;;2.20;;
58760;SDS011;44529;47.464;19.014;2023-05-07T17:01:22;2.47;;;2.10;;
58760;SDS011;44529;47.464;19.014;2023-05-07T17:04:24;3.87;;;2.10;;
58760;SDS011;44529;47.464;19.014;2023-05-07T17:07:26;4.30;;;2.80;;
58760;SDS011;44529;47.464;19.014;2023-05-07T17:10:29;2.55;;;2.25;;
58760;SDS011;44529;47.464;19.014;2023-05-07T17:13:31;2.28;;;1.83;;
58760;SDS011;44529;47.464;19.014;2023-05-07T17:16:33;3.30;;;2.20;;
58760;SDS011;44529;47.464;19.014;2023-05-07T17:19:36;2.42;;;1.95;;
58760;SDS011;44529;47.464;19.014;2023-05-07T17:22:41;3.35;;;2.03;;
58760;SDS011;44529;47.464;19.014;2023-05-07T17:25:43;2.40;;;2.20;;
58760;SDS011;44529;47.464;19.014;2023-05-07T17:28:46;2.53;;;1.90;;
58760;SDS011;44529;47.464;19.014;2023-05-07T17:31:48;2.55;;;2.35;;
58760;SDS011;44529;47.464;19.014;2023-05-07T17:34:51;2.15;;;2.03;;
58760;SDS011;44529;47.464;19.014;2023-05-07T17:37:53;2.22;;;2.03;;
58760;SDS011;44529;47.464;19.014;2023-05-07T17:40:56;2.37;;;2.17;;
58760;SDS011;44529;47.464;19.014;2023-05-07T17:43:59;2.53;;;2.33;;
58760;SDS011;44529;47.464;19.014;2023-05-07T17:47:01;1.77;;;1.67;;
58760;SDS011;44529;47.464;19.014;2023-05-07T17:50:04;3.33;;;2.17;;
58760;SDS011;44529;47.464;19.014;2023-05-07T17:53:12;3.20;;;1.95;;
58760;SDS011;44529;47.464;19.014;2023-05-07T17:56:14;1.80;;;1.70;;
58760;SDS011;44529;47.464;19.014;2023-05-07T17:59:17;2.50;;;2.10;;
58760;SDS011;44529;47.464;19.014;2023-05-07T18:02:19;3.03;;;2.20;;
58760;SDS011;44529;47.464;19.014;2023-05-07T18:05:21;1.77;;;1.67;;
58760;SDS011;44529;47.464;19.014;2023-05-07T18:08:24;2.58;;;2.05;;
58760;SDS011;44529;47.464;19.014;2023-05-07T18:11:26;4.25;;;2.30;;
58760;SDS011;44529;47.464;19.014;2023-05-07T18:14:29;2.35;;;2.15;;
58760;SDS011;44529;47.464;19.014;2023-05-07T18:17:32;2.28;;;2.08;;
58760;SDS011;44529;47.464;19.014;2023-05-07T18:20:34;2.70;;;2.28;;
58760;SDS011;44529;47.464;19.014;2023-05-07T18:23:36;2.55;;;2.35;;
58760;SDS011;44529;47.464;19.014;2023-05-07T18:26:39;2.50;;;2.28;;